Sunbury-on-Thames, United Kingdom
Current Conditions -  °F | °C
As of 4:50 AM on Tuesday 23 Dec 2014 (Local Time) from EGLL Reporting Station
Scattered Clouds Scattered Clouds  
Wind Chill: 52°   Ceiling: Unl
Heat Index: 52°   Visibility: 6mi
Dew Point: 45°   Wind: 17mph
Humidity: 76%   Direction: 240°WSW
Pressure: 30.06"   Gusts: NA
Location:  51.42°N, 0.41°W
Report Text: EGLL 230450Z 24015KT 9999 SCT033 11/07 Q1018
Loading
Personal Weather Stations






























Interactive Weather Map New forecast layout! Learn more

10-Day Weather Forecast

Advertisements
Track Severe Weather on mobile